Time;durP1;ratioP1;P1;durP2;ratioP2;P2;SDS_P1;SDS_P2;PMS_P1;PMS_P2;Temp;Humidity;BMP_temperature;BMP_pressure;BME280_temperature;BME280_humidity;BME280_pressure;Samples;Min_cycle;Max_cycle;Signal;HPM_P1;HPM_P2
2023/05/08 00:02:03;;;;;;;15.37;13.63;;;15.50;1.00;;;;;;4999797;28;20415;-40
2023/05/08 00:04:29;;;;;;;16.13;14.63;;;15.50;1.00;;;;;;4999155;28;20481;-41
2023/05/08 00:06:55;;;;;;;14.40;13.10;;;15.50;1.00;;;;;;4999614;28;20411;-40
2023/05/08 00:09:20;;;;;;;13.43;12.23;;;15.50;1.00;;;;;;4999823;28;20180;-40
2023/05/08 00:11:46;;;;;;;12.10;11.00;;;15.50;1.00;;;;;;5000241;28;20176;-40
2023/05/08 00:14:12;;;;;;;11.40;10.40;;;15.50;1.00;;;;;;4999670;28;20239;-39
2023/05/08 00:16:37;;;;;;;12.23;11.07;;;15.50;1.00;;;;;;4999588;28;20411;-43
2023/05/08 00:19:03;;;;;;;11.47;10.47;;;15.50;99.90;;;;;;4999601;28;20191;-42
2023/05/08 00:21:30;;;;;;;11.50;10.47;;;15.50;99.90;;;;;;4999633;28;20283;-40
2023/05/08 00:23:55;;;;;;;14.60;11.30;;;15.50;99.90;;;;;;4999717;28;20219;-40
2023/05/08 00:26:21;;;;;;;13.83;12.57;;;15.50;99.90;;;;;;4981998;28;20419;-42
2023/05/08 00:28:47;;;;;;;13.33;12.13;;;15.50;99.90;;;;;;4999578;28;20277;-42
2023/05/08 00:31:13;;;;;;;13.80;12.50;;;15.50;99.90;;;;;;4998558;28;20485;-40
2023/05/08 00:33:39;;;;;;;13.33;12.23;;;15.50;1.00;;;;;;4999399;28;20506;-40
2023/05/08 00:36:05;;;;;;;15.20;13.70;;;15.50;1.00;;;;;;4999457;28;20470;-40
2023/05/08 00:38:32;;;;;;;15.10;13.53;;;15.50;1.00;;;;;;4999311;28;20548;-40
2023/05/08 00:40:58;;;;;;;16.50;15.00;;;15.50;1.00;;;;;;4999577;28;20423;-41
2023/05/08 00:43:26;;;;;;;14.17;12.90;;;15.50;1.00;;;;;;4999181;28;20438;-40
2023/05/08 00:45:56;;;;;;;13.67;12.37;;;15.50;1.00;;;;;;4999461;28;20573;-43
2023/05/08 00:48:22;;;;;;;13.20;12.00;;;15.50;1.00;;;;;;4998884;28;20559;-41
2023/05/08 00:50:49;;;;;;;13.63;12.43;;;15.50;1.00;;;;;;4999292;28;20666;-41
2023/05/08 00:53:16;;;;;;;13.37;12.27;;;15.50;1.00;;;;;;4990104;28;20911;-41
2023/05/08 00:55:42;;;;;;;14.00;12.63;;;15.50;1.00;;;;;;4998789;28;20653;-42
2023/05/08 00:58:08;;;;;;;12.87;11.80;;;15.50;1.00;;;;;;4996383;28;20752;-41
2023/05/08 01:00:35;;;;;;;12.73;11.53;;;15.50;1.00;;;;;;4997293;28;20419;-39
2023/05/08 01:03:01;;;;;;;12.77;11.63;;;15.50;1.00;;;;;;4997758;28;20462;-40
2023/05/08 01:05:27;;;;;;;8.80;8.00;;;15.50;1.00;;;;;;4997363;28;20783;-40
2023/05/08 01:07:52;;;;;;;10.50;9.50;;;15.60;1.00;;;;;;4998856;28;20251;-40
2023/05/08 01:11:14;;;;;;;12.33;11.07;;;15.60;1.00;;;;;;4998530;28;20577;-41
2023/05/08 01:13:43;;;;;;;12.33;11.03;;;15.70;1.00;;;;;;4998578;28;20191;-41
2023/05/08 01:16:16;;;;;;;11.70;10.70;;;15.80;1.00;;;;;;4997062;28;20408;-41
2023/05/08 01:18:47;;;;;;;7.47;6.87;;;15.90;99.90;;;;;;4996623;28;20462;-40
2023/05/08 01:21:31;;;;;;;7.70;6.90;;;16.00;99.90;;;;;;4997122;28;20423;-41
2023/05/08 01:24:24;;;;;;;10.20;9.40;;;16.00;99.90;;;;;;4998130;28;20438;-43
2023/05/08 01:27:07;;;;;;;8.63;7.97;;;16.10;99.90;;;;;;4995132;28;20553;-41
2023/05/08 01:29:39;;;;;;;10.27;9.37;;;16.10;99.90;;;;;;4997602;28;20848;-43
2023/05/08 01:32:19;;;;;;;11.00;10.10;;;16.20;99.90;;;;;;4996850;28;20435;-39
2023/05/08 01:35:02;;;;;;;10.13;9.23;;;16.20;99.90;;;;;;4996388;28;20489;-41
2023/05/08 01:37:57;;;;;;;9.67;8.80;;;16.20;99.90;;;;;;4996939;28;20439;-43
2023/05/08 01:40:45;;;;;;;9.30;8.50;;;16.20;99.90;;;;;;4991178;28;20423;-40
2023/05/08 01:43:31;;;;;;;11.37;10.37;;;16.20;99.90;;;;;;4997723;28;20430;-39
2023/05/08 01:45:58;;;;;;;12.50;11.40;;;16.20;99.90;;;;;;4997818;28;20411;-41
2023/05/08 01:48:32;;;;;;;11.80;10.80;;;16.20;99.90;;;;;;4995578;28;20493;-43
2023/05/08 01:51:05;;;;;;;12.97;11.87;;;16.20;99.90;;;;;;4997762;28;20414;-40
2023/05/08 01:53:38;;;;;;;11.97;10.90;;;16.20;99.90;;;;;;4997744;28;20529;-41
2023/05/08 01:56:10;;;;;;;10.67;9.67;;;16.20;99.90;;;;;;4997594;28;20407;-40
2023/05/08 01:58:37;;;;;;;12.57;11.47;;;16.20;99.90;;;;;;4980522;28;20749;-42
2023/05/08 02:01:03;;;;;;;13.47;12.17;;;16.20;99.90;;;;;;4995482;28;20848;-40
2023/05/08 02:03:30;;;;;;;13.33;12.20;;;16.20;99.90;;;;;;4995981;28;20466;-40
2023/05/08 02:05:57;;;;;;;14.17;12.67;;;16.20;99.90;;;;;;4997417;28;20274;-41
2023/05/08 02:08:24;;;;;;;11.43;10.37;;;16.20;99.90;;;;;;4979517;28;20796;-40
2023/05/08 02:10:50;;;;;;;14.33;13.03;;;16.20;99.90;;;;;;4979312;28;20430;-40
2023/05/08 02:13:18;;;;;;;12.43;11.40;;;16.20;99.90;;;;;;4995315;28;20766;-44
2023/05/08 02:15:47;;;;;;;10.27;9.47;;;16.20;99.90;;;;;;4994774;28;20702;-41
2023/05/08 02:18:14;;;;;;;11.97;10.83;;;16.10;99.90;;;;;;4995199;28;20450;-43
2023/05/08 02:20:40;;;;;;;12.77;11.50;;;16.10;99.90;;;;;;4995740;28;20414;-40
2023/05/08 02:23:06;;;;;;;11.03;10.13;;;16.10;99.90;;;;;;4996135;28;20462;-42
2023/05/08 02:25:31;;;;;;;12.33;11.20;;;16.10;99.90;;;;;;4979549;28;20442;-41
2023/05/08 02:27:57;;;;;;;10.33;9.43;;;16.10;99.90;;;;;;4979589;28;20215;-40
2023/05/08 02:30:25;;;;;;;12.13;10.70;;;16.10;99.90;;;;;;4997268;28;20419;-42
2023/05/08 02:32:51;;;;;;;10.20;9.30;;;16.10;99.90;;;;;;4969220;28;20207;-40
2023/05/08 02:35:18;;;;;;;10.40;9.50;;;16.00;99.90;;;;;;4959216;28;20424;-39
2023/05/08 02:37:47;;;;;;;12.10;10.90;;;16.10;99.90;;;;;;4977706;28;20435;-40
2023/05/08 02:40:13;;;;;;;12.77;11.67;;;16.10;99.90;;;;;;4960337;28;20416;-40
2023/05/08 02:42:39;;;;;;;10.90;9.90;;;16.10;99.90;;;;;;4959248;28;20622;-41
2023/05/08 02:45:07;;;;;;;10.93;9.83;;;16.10;99.90;;;;;;4976741;28;20510;-41
2023/05/08 02:47:51;;;;;;;8.70;7.80;;;16.10;99.90;;;;;;4976342;28;20565;-42
2023/05/08 02:50:22;;;;;;;9.20;8.30;;;16.10;99.90;;;;;;4975624;28;20404;-41
2023/05/08 02:52:51;;;;;;;9.10;8.40;;;16.10;99.90;;;;;;4963534;28;20506;-42
2023/05/08 02:55:20;;;;;;;10.80;9.30;;;16.10;99.90;;;;;;4974923;28;20447;-40
2023/05/08 02:58:14;;;;;;;8.23;7.57;;;16.10;99.90;;;;;;4975105;28;20435;-40
2023/05/08 03:01:05;;;;;;;8.47;7.70;;;16.10;99.90;;;;;;4970334;28;20428;-40
2023/05/08 03:03:36;;;;;;;10.80;9.80;;;16.10;99.90;;;;;;4975601;28;20459;-40
2023/05/08 03:06:07;;;;;;;9.90;9.07;;;16.10;99.90;;;;;;4975850;28;20450;-41
2023/05/08 03:08:34;;;;;;;8.97;8.17;;;16.10;99.90;;;;;;4974537;28;20479;-40
2023/05/08 03:11:11;;;;;;;8.20;7.50;;;16.10;99.90;;;;;;4975141;28;20420;-41
2023/05/08 03:13:38;;;;;;;7.83;6.90;;;16.10;99.90;;;;;;4975960;28;20455;-40
2023/05/08 03:16:05;;;;;;;8.13;7.20;;;16.10;99.90;;;;;;4976209;28;20415;-42
2023/05/08 03:19:04;;;;;;;8.83;7.00;;;16.10;99.90;;;;;;4976391;28;20826;-42
2023/05/08 03:21:30;;;;;;;7.47;6.77;;;16.10;99.90;;;;;;4945085;28;20493;-40
2023/05/08 03:23:59;;;;;;;7.23;6.63;;;16.10;99.90;;;;;;4976575;28;20435;-43
2023/05/08 03:26:25;;;;;;;8.33;7.40;;;16.10;99.90;;;;;;4976176;28;20423;-40
2023/05/08 03:28:51;;;;;;;7.40;6.63;;;16.10;99.90;;;;;;4977084;28;20491;-40
2023/05/08 03:31:20;;;;;;;7.60;7.00;;;16.10;99.90;;;;;;4977301;28;20275;-43
2023/05/08 03:33:46;;;;;;;8.20;7.40;;;16.10;99.90;;;;;;4977163;28;20440;-41
2023/05/08 03:36:13;;;;;;;9.83;8.83;;;16.10;99.90;;;;;;4975135;28;20490;-40
2023/05/08 03:38:39;;;;;;;11.17;10.07;;;16.10;99.90;;;;;;4975088;28;20442;-41
2023/05/08 03:41:05;;;;;;;10.63;9.63;;;16.00;99.90;;;;;;4979340;28;20971;-40
2023/05/08 03:43:32;;;;;;;12.33;11.17;;;16.00;99.90;;;;;;4977952;28;20762;-40
2023/05/08 03:45:58;;;;;;;10.80;9.80;;;15.90;99.90;;;;;;4979041;28;20519;-41
2023/05/08 03:48:24;;;;;;;10.43;9.53;;;15.90;99.90;;;;;;4979535;28;20487;-40
2023/05/08 03:50:49;;;;;;;9.17;8.37;;;15.90;99.90;;;;;;4979043;28;20439;-42
2023/05/08 03:53:15;;;;;;;14.27;12.80;;;16.00;99.90;;;;;;4980021;28;20236;-40
2023/05/08 03:55:41;;;;;;;11.90;10.70;;;16.00;99.90;;;;;;4979721;28;20183;-40
2023/05/08 03:58:13;;;;;;;13.67;12.43;;;16.00;99.90;;;;;;4979612;28;20470;-40
2023/05/08 04:00:49;;;;;;;13.20;12.00;;;16.00;99.90;;;;;;4979399;28;20180;-41
2023/05/08 04:03:27;;;;;;;12.37;11.20;;;16.00;99.90;;;;;;4962565;28;20448;-42
2023/05/08 04:05:53;;;;;;;9.23;8.43;;;16.00;99.90;;;;;;4979170;28;20430;-41
2023/05/08 04:08:26;;;;;;;9.20;8.40;;;16.00;99.90;;;;;;4978570;28;20582;-42
2023/05/08 04:11:32;;;;;;;8.80;8.07;;;16.00;99.90;;;;;;4959970;28;20187;-41
2023/05/08 04:14:02;;;;;;;11.33;10.33;;;15.90;99.90;;;;;;4960296;28;20474;-41
2023/05/08 04:16:34;;;;;;;9.80;8.90;;;15.90;99.90;;;;;;4976485;28;20419;-41
2023/05/08 04:19:08;;;;;;;10.43;9.47;;;15.90;99.90;;;;;;4960795;28;20436;-42
2023/05/08 04:21:34;;;;;;;11.00;8.50;;;16.00;99.90;;;;;;4959424;28;20498;-41
2023/05/08 04:24:02;;;;;;;9.40;8.27;;;16.00;99.90;;;;;;4959364;28;20561;-41
2023/05/08 04:26:28;;;;;;;9.23;8.43;;;16.00;99.90;;;;;;4977244;28;20416;-40
2023/05/08 04:28:54;;;;;;;8.80;8.00;;;16.00;99.90;;;;;;4960525;28;20917;-41
2023/05/08 04:31:21;;;;;;;9.17;8.27;;;16.00;99.90;;;;;;4977033;28;20483;-41
2023/05/08 04:33:47;;;;;;;9.73;8.93;;;16.10;99.90;;;;;;4975741;28;20276;-42
2023/05/08 04:36:13;;;;;;;11.00;9.93;;;16.10;99.90;;;;;;4977001;28;20527;-41
2023/05/08 04:38:39;;;;;;;11.33;10.33;;;16.10;99.90;;;;;;4976087;28;20189;-43
2023/05/08 04:41:06;;;;;;;10.43;9.43;;;16.20;99.90;;;;;;4976992;28;20430;-43
2023/05/08 04:43:31;;;;;;;10.60;9.70;;;16.20;99.90;;;;;;4975937;28;20804;-41
2023/05/08 04:45:57;;;;;;;13.17;11.87;;;16.20;99.90;;;;;;4976356;28;20419;-40
2023/05/08 04:48:23;;;;;;;12.37;11.27;;;16.10;99.90;;;;;;4958780;28;20274;-41
2023/05/08 04:50:49;;;;;;;13.30;12.00;;;16.10;99.90;;;;;;4974965;28;20231;-41
2023/05/08 04:53:15;;;;;;;12.10;11.10;;;16.20;99.90;;;;;;4974513;28;20898;-43
2023/05/08 04:55:40;;;;;;;14.93;13.43;;;16.20;99.90;;;;;;4974486;28;20535;-41
2023/05/08 04:58:06;;;;;;;14.47;13.17;;;16.20;99.90;;;;;;4975174;28;20259;-41
2023/05/08 05:00:33;;;;;;;17.97;16.07;;;16.20;99.90;;;;;;4972601;28;20180;-41
2023/05/08 05:02:59;;;;;;;17.03;15.40;;;16.10;99.90;;;;;;4973967;28;20201;-41
2023/05/08 05:05:24;;;;;;;11.87;10.67;;;16.00;99.90;;;;;;4975085;28;20420;-41
2023/05/08 05:07:50;;;;;;;16.07;14.47;;;16.10;99.90;;;;;;4973640;28;20215;-42
2023/05/08 05:10:16;;;;;;;15.90;14.33;;;16.10;99.90;;;;;;4974051;28;20288;-39
2023/05/08 05:12:41;;;;;;;16.33;14.73;;;16.20;99.90;;;;;;4973724;28;20479;-40
2023/05/08 05:15:08;;;;;;;13.90;12.50;;;16.20;99.90;;;;;;4971720;28;20177;-41
2023/05/08 05:17:34;;;;;;;15.67;14.20;;;16.30;99.90;;;;;;4973543;28;20184;-41
2023/05/08 05:19:59;;;;;;;14.93;13.57;;;16.40;99.90;;;;;;4955706;28;20493;-42
2023/05/08 05:22:26;;;;;;;15.93;14.43;;;16.40;99.90;;;;;;4966838;28;20436;-40
2023/05/08 05:24:52;;;;;;;16.20;14.23;;;16.30;99.90;;;;;;4971475;28;20188;-42
2023/05/08 05:27:18;;;;;;;14.07;12.83;;;16.30;99.90;;;;;;4973764;28;20424;-40
2023/05/08 05:29:43;;;;;;;15.53;13.73;;;16.30;99.90;;;;;;4954204;28;20252;-40
2023/05/08 05:32:10;;;;;;;16.53;14.90;;;16.30;99.90;;;;;;4969295;28;20393;-43
2023/05/08 05:34:36;;;;;;;17.40;15.73;;;16.40;99.90;;;;;;4954089;28;20179;-42
2023/05/08 05:37:01;;;;;;;15.87;14.47;;;16.40;99.90;;;;;;4969044;28;20416;-41
2023/05/08 05:39:27;;;;;;;14.50;13.10;;;16.40;99.90;;;;;;4970255;28;20187;-40
2023/05/08 05:41:53;;;;;;;17.13;15.43;;;16.50;99.90;;;;;;4969629;28;20208;-41
2023/05/08 05:44:18;;;;;;;19.27;17.43;;;16.50;99.90;;;;;;4971749;28;20180;-43
2023/05/08 05:46:44;;;;;;;19.27;17.37;;;16.50;99.90;;;;;;4970958;28;20181;-40
2023/05/08 05:49:11;;;;;;;17.80;15.87;;;16.50;99.90;;;;;;4982329;28;20223;-41
2023/05/08 05:51:36;;;;;;;19.30;17.37;;;16.60;99.90;;;;;;4991181;28;20570;-40
2023/05/08 05:54:03;;;;;;;17.80;16.00;;;16.60;99.90;;;;;;4989579;28;20776;-40
2023/05/08 05:56:29;;;;;;;17.60;15.90;;;16.70;99.90;;;;;;4990878;28;20243;-42
2023/05/08 05:58:55;;;;;;;16.90;15.20;;;16.70;65.40;;;;;;4977869;28;20443;-42
2023/05/08 06:01:23;;;;;;;16.73;15.03;;;16.80;43.20;;;;;;4977915;28;20192;-41
2023/05/08 06:03:49;;;;;;;17.40;15.60;;;16.80;18.80;;;;;;4979766;28;20196;-40
2023/05/08 06:06:14;;;;;;;17.07;15.40;;;16.80;1.00;;;;;;4989955;28;20742;-42
2023/05/08 06:08:41;;;;;;;14.80;13.40;;;16.80;1.00;;;;;;4990319;28;20223;-41
2023/05/08 06:11:06;;;;;;;15.87;14.47;;;16.80;1.00;;;;;;4990414;28;20196;-39
2023/05/08 06:13:32;;;;;;;16.63;15.03;;;16.80;1.00;;;;;;4993984;28;20876;-41
2023/05/08 06:15:58;;;;;;;16.10;14.40;;;16.80;1.00;;;;;;4993599;28;20588;-41
2023/05/08 06:18:23;;;;;;;13.90;12.60;;;16.90;1.00;;;;;;4990624;28;20569;-42
2023/05/08 06:20:57;;;;;;;16.20;14.70;;;16.90;1.00;;;;;;4992946;28;20187;-40
2023/05/08 06:23:23;;;;;;;15.90;14.50;;;16.90;1.00;;;;;;4992061;28;20516;-42
2023/05/08 06:25:48;;;;;;;16.27;14.77;;;17.00;1.00;;;;;;4993822;28;20757;-41
2023/05/08 06:28:14;;;;;;;16.60;15.00;;;17.00;1.00;;;;;;4989608;28;20293;-41
2023/05/08 06:30:40;;;;;;;15.23;13.63;;;17.00;1.00;;;;;;4992042;28;20191;-42
2023/05/08 06:33:05;;;;;;;17.40;14.83;;;17.00;1.00;;;;;;4991700;28;20279;-42
2023/05/08 06:35:31;;;;;;;15.40;13.90;;;17.10;1.00;;;;;;4989498;28;20500;-40
2023/05/08 06:37:57;;;;;;;15.40;13.80;;;17.10;1.00;;;;;;4989268;28;20187;-42
2023/05/08 06:40:23;;;;;;;15.17;13.67;;;17.00;1.00;;;;;;4990225;28;20208;-44
2023/05/08 06:42:48;;;;;;;16.43;14.83;;;17.10;1.00;;;;;;4989666;28;20257;-40
2023/05/08 06:45:14;;;;;;;15.83;14.23;;;17.10;1.00;;;;;;4992292;28;20513;-41
2023/05/08 06:47:40;;;;;;;16.50;14.77;;;17.10;1.00;;;;;;4990706;28;20416;-43
2023/05/08 06:50:06;;;;;;;15.77;14.27;;;17.10;1.00;;;;;;4992335;28;20423;-40
2023/05/08 06:52:31;;;;;;;14.60;13.20;;;17.10;1.00;;;;;;4993122;28;20240;-41
2023/05/08 06:54:57;;;;;;;14.57;13.20;;;17.20;1.00;;;;;;4992048;28;20425;-42
2023/05/08 06:57:25;;;;;;;15.57;14.07;;;17.20;1.00;;;;;;4991489;28;20476;-41
2023/05/08 06:59:52;;;;;;;15.63;14.13;;;17.20;1.00;;;;;;4976889;28;20183;-41
2023/05/08 07:02:19;;;;;;;16.10;14.60;;;17.30;1.00;;;;;;4993299;28;20481;-41
2023/05/08 07:04:45;;;;;;;13.83;12.47;;;17.30;99.90;;;;;;4993179;28;20690;-43
2023/05/08 07:07:12;;;;;;;17.57;14.87;;;17.30;1.00;;;;;;4976707;28;20425;-44
2023/05/08 07:09:38;;;;;;;19.20;17.40;;;17.30;1.00;;;;;;4993196;28;20693;-45
2023/05/08 07:12:04;;;;;;;17.40;15.70;;;17.30;99.90;;;;;;4995562;28;20415;-42
2023/05/08 07:14:30;;;;;;;16.57;15.07;;;17.40;1.00;;;;;;4994801;28;20730;-42
2023/05/08 07:16:57;;;;;;;14.30;12.90;;;17.40;1.00;;;;;;4996821;28;20830;-44
2023/05/08 07:19:23;;;;;;;15.50;13.90;;;17.50;99.90;;;;;;4995144;28;20226;-44
2023/05/08 07:21:49;;;;;;;15.40;14.00;;;17.60;99.90;;;;;;4994794;28;20430;-41
2023/05/08 07:24:15;;;;;;;14.77;13.40;;;17.80;99.90;;;;;;4993931;28;20422;-42
2023/05/08 07:26:41;;;;;;;14.13;12.73;;;17.90;99.90;;;;;;4995781;28;20454;-41
2023/05/08 07:29:07;;;;;;;14.90;13.50;;;18.10;19.90;;;;;;4993418;28;20310;-44
2023/05/08 07:31:32;;;;;;;12.77;11.67;;;18.30;1.00;;;;;;4994860;28;20172;-40
2023/05/08 07:33:58;;;;;;;14.57;13.30;;;18.50;99.90;;;;;;4994957;28;20533;-39
2023/05/08 07:36:24;;;;;;;12.50;11.30;;;18.70;1.00;;;;;;4978130;28;20216;-41
2023/05/08 07:38:49;;;;;;;12.00;10.93;;;19.00;1.00;;;;;;4994615;28;20191;-40
2023/05/08 07:41:15;;;;;;;14.87;13.30;;;19.20;99.90;;;;;;4996454;28;20172;-40
2023/05/08 07:43:42;;;;;;;13.43;12.23;;;19.50;1.00;;;;;;4997031;28;20199;-40
2023/05/08 07:46:08;;;;;;;10.10;9.10;;;19.70;99.90;;;;;;4996989;28;20306;-42
2023/05/08 07:48:34;;;;;;;12.90;11.70;;;19.80;99.90;;;;;;4977365;28;20478;-41
2023/05/08 07:50:59;;;;;;;10.60;9.70;;;20.00;1.00;;;;;;4994463;28;20246;-41
2023/05/08 07:53:25;;;;;;;10.83;9.83;;;19.90;99.90;;;;;;4994525;28;20262;-41
2023/05/08 07:55:51;;;;;;;10.07;9.10;;;20.10;99.90;;;;;;4995521;28;20408;-40
2023/05/08 07:58:17;;;;;;;10.80;9.80;;;20.30;99.90;;;;;;4992123;28;20198;-42
2023/05/08 08:00:43;;;;;;;11.80;9.03;;;20.50;1.00;;;;;;4996891;28;20426;-40
2023/05/08 08:03:09;;;;;;;8.63;7.83;;;20.60;99.90;;;;;;4998105;28;20210;-41
2023/05/08 08:05:34;;;;;;;8.90;8.00;;;20.80;99.90;;;;;;4995674;28;20817;-42
2023/05/08 08:08:00;;;;;;;9.47;8.60;;;20.90;1.00;;;;;;4994551;28;20214;-41
2023/05/08 08:10:26;;;;;;;8.53;7.83;;;21.00;1.00;;;;;;4996322;28;20184;-43
2023/05/08 08:12:52;;;;;;;7.23;6.63;;;21.00;1.00;;;;;;4979137;28;20196;-43
2023/05/08 08:15:17;;;;;;;7.60;7.00;;;21.00;1.00;;;;;;4996063;28;20179;-41
2023/05/08 08:17:43;;;;;;;6.10;5.60;;;21.10;1.00;;;;;;4997823;28;20188;-40
2023/05/08 08:20:09;;;;;;;11.27;10.27;;;21.00;1.00;;;;;;4997122;28;20196;-40
2023/05/08 08:22:36;;;;;;;9.93;9.03;;;20.80;99.90;;;;;;4977707;28;20192;-41
2023/05/08 08:25:02;;;;;;;9.07;8.27;;;20.40;1.00;;;;;;4993801;28;20799;-42
2023/05/08 08:27:28;;;;;;;9.07;8.17;;;20.20;1.00;;;;;;4993767;28;20525;-40
2023/05/08 08:29:53;;;;;;;10.73;9.73;;;20.00;99.90;;;;;;4994015;28;20447;-41
2023/05/08 08:32:19;;;;;;;11.77;10.77;;;19.80;99.90;;;;;;4993641;28;20409;-41
2023/05/08 08:34:45;;;;;;;8.43;7.73;;;19.60;99.90;;;;;;4994498;28;20518;-40
2023/05/08 08:37:11;;;;;;;11.17;10.27;;;19.40;52.20;;;;;;4995936;28;20415;-41
2023/05/08 08:39:36;;;;;;;12.10;10.87;;;19.20;99.90;;;;;;4993711;28;20470;-41
2023/05/08 08:42:02;;;;;;;10.93;9.87;;;19.00;1.00;;;;;;4996384;28;20190;-42
2023/05/08 08:44:29;;;;;;;10.30;9.37;;;18.80;99.90;;;;;;4998126;28;20457;-40
2023/05/08 08:46:57;;;;;;;11.90;10.80;;;18.70;99.90;;;;;;4998171;28;20484;-41
2023/05/08 08:49:30;;;;;;;13.60;11.17;;;18.60;1.00;;;;;;4979965;28;20486;-43
2023/05/08 08:52:35;;;;;;;10.87;9.73;;;18.50;76.20;;;;;;4978638;28;20836;-41
2023/05/08 08:55:02;;;;;;;12.33;11.30;;;18.40;99.90;;;;;;4995954;28;20423;-40
2023/05/08 08:57:32;;;;;;;13.37;12.27;;;18.40;99.90;;;;;;4978721;28;20509;-40
2023/05/08 09:00:02;;;;;;;12.37;11.37;;;18.30;99.90;;;;;;4995788;28;20426;-41
2023/05/08 09:02:28;;;;;;;11.17;10.27;;;18.20;1.00;;;;;;4996640;28;20438;-40
2023/05/08 09:04:54;;;;;;;12.60;11.27;;;18.20;56.70;;;;;;4978264;28;20421;-43
2023/05/08 09:07:20;;;;;;;12.20;11.20;;;18.10;1.00;;;;;;4995732;28;20808;-41
2023/05/08 09:09:47;;;;;;;11.60;10.60;;;18.00;99.90;;;;;;5000051;28;20431;-43
2023/05/08 09:12:13;;;;;;;11.77;10.77;;;18.00;99.90;;;;;;5015446;28;20190;-41
2023/05/08 09:14:39;;;;;;;11.40;10.37;;;18.10;99.90;;;;;;5014266;28;20774;-41
2023/05/08 09:17:05;;;;;;;12.53;11.53;;;18.20;99.90;;;;;;4996201;28;20529;-41
2023/05/08 09:19:30;;;;;;;11.97;10.97;;;18.20;99.90;;;;;;5013809;28;20177;-40
2023/05/08 09:22:00;;;;;;;11.07;10.17;;;18.20;1.00;;;;;;4995685;28;20440;-40
2023/05/08 09:24:31;;;;;;;10.27;9.37;;;18.10;77.20;;;;;;5014990;28;20363;-42
2023/05/08 09:26:56;;;;;;;10.37;9.47;;;18.00;1.00;;;;;;4995942;28;20493;-41
2023/05/08 09:29:22;;;;;;;10.80;9.90;;;18.00;40.40;;;;;;5013351;28;20480;-40
2023/05/08 09:31:51;;;;;;;8.60;7.90;;;17.90;24.80;;;;;;4995514;28;20186;-42
2023/05/08 09:34:28;;;;;;;9.93;9.13;;;17.80;99.90;;;;;;5002189;28;20183;-42
2023/05/08 09:36:55;;;;;;;9.43;8.73;;;17.70;1.00;;;;;;4992810;28;20446;-41
2023/05/08 09:39:23;;;;;;;9.60;8.90;;;17.60;1.00;;;;;;4994264;28;20438;-43
2023/05/08 09:42:02;;;;;;;8.43;7.77;;;17.50;1.00;;;;;;4993962;28;20516;-39
2023/05/08 09:44:31;;;;;;;7.90;7.30;;;17.50;21.10;;;;;;4994265;28;20423;-42
2023/05/08 09:47:18;;;;;;;6.30;5.77;;;17.50;99.90;;;;;;4977760;28;20434;-41
2023/05/08 09:50:03;;;;;;;6.90;6.40;;;17.50;99.90;;;;;;4994803;28;20434;-42
2023/05/08 09:52:30;;;;;;;6.20;5.70;;;17.50;99.90;;;;;;4991678;28;20919;-40
2023/05/08 09:55:00;;;;;;;6.50;6.00;;;17.40;99.90;;;;;;4993894;28;20562;-40
2023/05/08 09:57:27;;;;;;;6.90;6.30;;;17.50;99.90;;;;;;4991851;28;20705;-40
2023/05/08 10:00:10;;;;;;;5.90;5.43;;;17.50;99.90;;;;;;4992330;28;20439;-41
2023/05/08 10:02:36;;;;;;;5.90;5.40;;;17.60;99.90;;;;;;4991179;28;20435;-41
2023/05/08 10:05:26;;;;;;;6.97;6.37;;;17.60;99.90;;;;;;4976787;28;20871;-41
2023/05/08 10:07:52;;;;;;;6.93;6.33;;;17.70;99.90;;;;;;4991793;28;20597;-41
2023/05/08 10:10:29;;;;;;;6.83;6.23;;;17.70;99.90;;;;;;4993380;28;20565;-41
2023/05/08 10:12:56;;;;;;;5.53;4.90;;;17.60;99.90;;;;;;4992037;28;20438;-41
2023/05/08 10:15:30;;;;;;;4.53;4.20;;;17.60;99.90;;;;;;4991381;28;20813;-43
2023/05/08 10:18:04;;;;;;;4.67;4.27;;;17.60;99.90;;;;;;4992272;28;20521;-41
2023/05/08 10:20:31;;;;;;;4.97;4.27;;;17.60;1.00;;;;;;4991326;28;20665;-42
2023/05/08 10:22:58;;;;;;;5.10;4.70;;;17.60;1.00;;;;;;4975169;28;20465;-42
2023/05/08 10:25:24;;;;;;;4.40;4.00;;;17.60;99.90;;;;;;4988392;28;20422;-42
2023/05/08 10:27:54;;;;;;;3.93;3.63;;;17.70;99.90;;;;;;4990503;28;20482;-41
2023/05/08 10:30:24;;;;;;;4.07;3.10;;;17.70;99.90;;;;;;4992142;28;20840;-41
2023/05/08 10:32:55;;;;;;;3.90;3.60;;;17.80;48.90;;;;;;4992693;28;20520;-42
2023/05/08 10:35:21;;;;;;;4.23;3.83;;;17.80;34.50;;;;;;4992259;28;20445;-41
2023/05/08 10:37:47;;;;;;;4.27;3.87;;;17.90;31.70;;;;;;5001667;28;20544;-40
2023/05/08 10:40:19;;;;;;;4.37;4.00;;;18.00;71.70;;;;;;5014370;28;20688;-42
2023/05/08 10:42:45;;;;;;;3.50;3.20;;;18.00;63.30;;;;;;5015496;28;20433;-41
2023/05/08 10:45:11;;;;;;;5.13;3.27;;;18.10;99.90;;;;;;5015209;28;20418;-43
2023/05/08 10:48:15;;;;;;;4.20;3.80;;;18.20;42.50;;;;;;4997243;28;20568;-42
2023/05/08 10:51:02;;;;;;;3.60;3.30;;;18.30;1.00;;;;;;5017971;28;20819;-41
2023/05/08 10:53:46;;;;;;;3.80;3.50;;;18.40;1.00;;;;;;5013702;28;20462;-43
2023/05/08 10:56:11;;;;;;;3.57;3.13;;;18.60;1.00;;;;;;5016684;28;20445;-45
2023/05/08 10:58:40;;;;;;;4.77;3.00;;;18.70;1.00;;;;;;5001344;28;20470;-41
2023/05/08 11:01:06;;;;;;;3.37;3.07;;;18.80;99.90;;;;;;5016138;28;20187;-43
2023/05/08 11:03:38;;;;;;;3.30;3.10;;;18.80;1.00;;;;;;5015089;28;20421;-42
2023/05/08 11:06:04;;;;;;;3.43;3.10;;;18.80;1.00;;;;;;5001163;28;20445;-41
2023/05/08 11:08:30;;;;;;;3.07;2.87;;;18.90;1.00;;;;;;5018081;28;20509;-42
2023/05/08 11:11:01;;;;;;;4.33;3.57;;;19.00;14.20;;;;;;4998032;28;20254;-42
2023/05/08 11:13:39;;;;;;;3.37;3.07;;;18.90;1.00;;;;;;5016018;28;20529;-43
2023/05/08 11:16:05;;;;;;;3.30;3.00;;;18.90;1.00;;;;;;5015561;28;20420;-42
2023/05/08 11:18:31;;;;;;;3.57;3.27;;;18.90;1.00;;;;;;5015344;28;20496;-42
2023/05/08 11:21:02;;;;;;;4.07;3.77;;;18.90;4.10;;;;;;5015704;28;20631;-42
2023/05/08 11:23:32;;;;;;;4.23;3.80;;;18.90;59.20;;;;;;5014235;28;20438;-41
2023/05/08 11:26:03;;;;;;;3.33;3.03;;;18.90;1.00;;;;;;5014637;28;20417;-41
2023/05/08 11:28:36;;;;;;;5.10;4.70;;;18.80;99.90;;;;;;5013539;28;20836;-42
2023/05/08 11:31:03;;;;;;;3.90;3.60;;;18.90;99.90;;;;;;5015778;28;20422;-43
2023/05/08 11:33:31;;;;;;;3.40;3.10;;;18.90;99.90;;;;;;5012873;28;20506;-43
2023/05/08 11:36:19;;;;;;;3.37;3.17;;;19.10;1.00;;;;;;5013173;28;20426;-41
2023/05/08 11:39:09;;;;;;;4.97;4.47;;;19.20;1.00;;;;;;5016788;28;20441;-42
2023/05/08 11:41:35;;;;;;;3.53;3.23;;;19.40;99.90;;;;;;4999112;28;20445;-41
2023/05/08 11:44:04;;;;;;;3.53;3.23;;;19.60;99.90;;;;;;5015620;28;20457;-42
2023/05/08 11:46:48;;;;;;;3.70;3.40;;;19.70;1.00;;;;;;5015268;28;20183;-42
2023/05/08 11:49:18;;;;;;;4.00;3.70;;;19.90;99.90;;;;;;5013849;28;20537;-42
2023/05/08 11:51:56;;;;;;;3.30;3.00;;;20.10;99.90;;;;;;5013012;28;20414;-40
2023/05/08 11:54:23;;;;;;;3.90;3.60;;;20.30;1.00;;;;;;4995516;28;20722;-39
2023/05/08 11:56:50;;;;;;;4.20;3.80;;;20.40;1.00;;;;;;5012849;28;20649;-39
2023/05/08 11:59:16;;;;;;;3.97;3.57;;;20.60;99.90;;;;;;5013832;28;20434;-42
2023/05/08 12:01:42;;;;;;;4.03;3.73;;;20.90;99.90;;;;;;5014106;28;20477;-38
2023/05/08 12:04:11;;;;;;;3.43;3.13;;;21.20;43.00;;;;;;5015662;28;20683;-42
2023/05/08 12:06:39;;;;;;;3.77;3.47;;;21.70;15.50;;;;;;5016497;28;20421;-41
2023/05/08 12:09:15;;;;;;;3.60;3.23;;;22.20;1.00;;;;;;5016308;28;20469;-42
2023/05/08 12:11:42;;;;;;;4.10;3.80;;;22.90;99.90;;;;;;5016852;28;20435;-41
2023/05/08 12:14:09;;;;;;;4.23;3.83;;;23.50;1.00;;;;;;5016662;28;20406;-42
2023/05/08 12:16:39;;;;;;;4.87;4.47;;;23.90;1.00;;;;;;5016271;28;20517;-42
2023/05/08 12:19:10;;;;;;;4.60;4.20;;;24.20;99.90;;;;;;5018356;28;20421;-43
2023/05/08 12:21:35;;;;;;;4.33;4.03;;;24.40;99.90;;;;;;5017702;28;20418;-42
2023/05/08 12:24:06;;;;;;;4.20;3.90;;;24.40;99.90;;;;;;4981055;28;20550;-41
2023/05/08 12:26:38;;;;;;;5.80;5.30;;;24.20;99.90;;;;;;4995034;28;20183;-43
2023/05/08 12:29:06;;;;;;;5.63;5.13;;;24.20;99.90;;;;;;4993356;28;20489;-41
2023/05/08 12:31:33;;;;;;;4.80;4.40;;;24.30;99.90;;;;;;4992589;28;20815;-44
2023/05/08 12:34:01;;;;;;;5.73;5.23;;;24.50;99.90;;;;;;4963078;28;20794;-43
2023/05/08 12:36:27;;;;;;;7.10;6.50;;;24.40;27.20;;;;;;4958172;28;20643;-40
2023/05/08 12:39:11;;;;;;;7.00;6.30;;;24.60;97.20;;;;;;4976631;28;20490;-40
2023/05/08 12:41:50;;;;;;;7.17;6.57;;;25.20;92.70;;;;;;4974363;28;20749;-40
2023/05/08 12:44:17;;;;;;;5.70;5.30;;;25.90;41.20;;;;;;4975756;28;20474;-44
2023/05/08 12:46:48;;;;;;;7.27;6.70;;;26.90;1.00;;;;;;4975611;28;20507;-42
2023/05/08 12:49:17;;;;;;;7.70;7.10;;;27.60;1.00;;;;;;4977065;28;20590;-48